ADDS METAR Data INFO
IDs: Format: Raw Decoded Include TAF

Data at: 1325 UTC 19 Jul 2018

KDDC 191252Z AUTO 00000KT 5SM HZ CLR 23/20 A2996 RMK AO2 SLP108 T02280200 $
KDDC 191152Z AUTO 19003KT 6SM BR CLR 21/18 A2994 RMK AO2 SLP105 T02060183 10239 20194 58001
KDDC 191052Z AUTO 14003KT 7SM CLR 20/18 A2994 RMK AO2 SLP104 T02000178
KDDC 190952Z AUTO 17005KT 9SM CLR 22/18 A2995 RMK AO2 SLP105 T02170183
KDDC 190852Z AUTO 20007KT 9SM CLR 22/18 A2994 RMK AO2 SLP104 T02170183 56008
KDDC 190752Z AUTO 18008KT 8SM CLR 23/19 A2994 RMK AO2 SLP104 T02330194
KDDC 190652Z AUTO 17011KT 9SM CLR 24/19 A2996 RMK AO2 SLP110 T02390194
KDDC 190552Z AUTO 16009KT 9SM CLR 24/20 A2997 RMK AO2 SLP112 T02440200 10322 20244 403390206 51009
KDDC 190452Z AUTO 16010KT 9SM CLR 25/20 A2997 RMK AO2 SLP113 T02500200
KDDC 190352Z AUTO 16009KT 9SM CLR 26/21 A2997 RMK AO2 SLP113 T02560206
KDDC 190252Z AUTO 16009KT 10SM CLR 27/20 A2994 RMK AO2 SLP103 T02720200 56003
KDDC 190152Z AUTO 16011KT 9SM CLR 29/20 A2995 RMK AO2 SLP106 T02890200
KDDC 190052Z AUTO 16012KT 9SM CLR 31/20 A2994 RMK AO2 LTG DSNT NE SLP105 T03110200
KDDC 182352Z AUTO 15008KT 10SM CLR 32/19 A2995 RMK AO2 SLP107 T03220194 10339 20306 56004
KDDC 182252Z AUTO 15012KT 10SM FEW055 33/19 A2995 RMK AO2 SLP107 T03330194
KDDC 182152Z AUTO 17010KT 10SM FEW055 33/21 A2996 RMK AO2 SLP110 T03330206
KDDC 182052Z AUTO 20010G17KT 10SM FEW050 34/21 A2996 RMK AO2 SLP110 T03390206 58012
KDDC 181952Z AUTO 19011KT 10SM CLR 33/19 A2998 RMK AO2 SLP116 T03280189 $
KDDC 181852Z AUTO VRB04G16KT 10SM CLR 32/19 A3000 RMK AO2 SLP124 T03220194 $
KDDC 181836Z AUTO VRB03KT 1 1/4SM HZ CLR 32/20 A3001 RMK AO2 T03170200 $
KDDC 181752Z AUTO VRB03KT 10SM FEW040 32/21 A3003 RMK AO2 SLP133 T03170206 10317 20206 58009
KDDC 181652Z AUTO 00000KT 10SM FEW037 29/19 A3005 RMK AO2 SLP144 T02940194
KDDC 181552Z AUTO 35005KT 10SM FEW032 29/20 A3005 RMK AO2 SLP144 T02890200
KDDC 181452Z AUTO 02007KT 10SM CLR 27/21 A3006 RMK AO2 SLP143 T02720206 53008
KDDC 181352Z AUTO VRB03KT 10SM CLR 26/19 A3004 RMK AO2 SLP138 T02560194
KDDC 181252Z AUTO 19003KT 5SM BR CLR 22/20 A3004 RMK AO2 SLP139 T02170200
KDDC 181152Z AUTO 00000KT 5SM BR CLR 21/19 A3003 RMK AO2 SLP135 T02060194 10233 20206 55002 $
KDDC 181052Z AUTO 03003KT 6SM BR CLR 22/20 A3002 RMK AO2 SLP130 T02170200 $
KDDC 180952Z AUTO 18007KT 9SM FEW100 22/20 A3001 RMK AO2 SLP127 T02220200 $
KDDC 180852Z AUTO 00000KT 10SM FEW100 23/19 A3004 RMK AO2 SLP136 T02280194 58005 $
KDDC 180823Z AUTO 21004KT 10SM SCT009 23/20 A3005 RMK AO2 T02280200 $
KDDC 180752Z AUTO 18005KT 10SM OVC009 23/20 A3005 RMK AO2 SLP142 T02330200 $
KDDC 180714Z AUTO 29005KT 10SM BKN009 BKN070 23/19 A3008 RMK AO2 T02280194 $
KDDC 180652Z AUTO 00000KT 10SM FEW010 SCT070 22/19 A3006 RMK AO2 SLP145 T02220194 $
KDDC 180552Z AUTO 14003KT 10SM CLR 22/19 A3005 RMK AO2 SLP143 T02220189 10317 20217 403330206 50001 $
KDDC 180452Z AUTO 14003KT 10SM CLR 22/19 A3008 RMK AO2 SLP155 T02220194 $
KDDC 180352Z AUTO 14005KT 10SM CLR 23/19 A3006 RMK AO2 LTG DSNT SE SLP151 T02280194 $
KDDC 180305Z AUTO 09011KT 10SM FEW038 26/20 A3004 RMK AO2 LTG DSNT E AND SE T02560200 $
KDDC 180252Z AUTO 08010G16KT 10SM VCTS SCT038 27/20 A3005 RMK AO2 LTG DSNT E AND SE SLP145 T02670200 51013 $
KDDC 180216Z AUTO 24005KT 10SM VCTS BKN036 BKN060 26/18 A3004 RMK AO2 LTG DSNT SE AND S T02610183
KDDC 180152Z AUTO 08008G17KT 10SM FEW065 SCT080 28/20 A3003 RMK AO2 LTG DSNT S AND SW SLP139 T02830200